TimeMDT,TemperatureF,Dew PointF,Humidity,Sea Level PressureIn,VisibilityMPH,Wind Direction,Wind SpeedMPH,Gust SpeedMPH,PrecipitationIn,Events,Conditions,WindDirDegrees,DateUTC
12:15 AM,75.6,52.9,45,30.00,10.0,SW,4.6,-,N/A,,Clear,220,2013-08-28 06:15:00
12:35 AM,75.0,53.8,47,30.00,10.0,WSW,3.5,-,N/A,,Clear,250,2013-08-28 06:35:00
12:55 AM,72.3,54.7,54,30.00,10.0,WSW,3.5,-,N/A,,Clear,240,2013-08-28 06:55:00
1:15 AM,70.9,55.0,57,30.00,10.0,SW,5.8,-,N/A,,Clear,230,2013-08-28 07:15:00
1:35 AM,70.0,54.9,59,30.00,10.0,SSW,4.6,-,N/A,,Clear,210,2013-08-28 07:35:00
1:55 AM,68.0,55.8,65,30.00,10.0,Calm,Calm,-,N/A,,Clear,0,2013-08-28 07:55:00
2:15 AM,65.1,57.2,75,30.00,10.0,WSW,4.6,-,N/A,,Clear,240,2013-08-28 08:15:00
2:35 AM,65.3,56.5,73,30.00,10.0,SSW,3.5,-,N/A,,Clear,210,2013-08-28 08:35:00
2:55 AM,63.7,55.9,76,30.00,10.0,West,3.5,-,N/A,,Clear,270,2013-08-28 08:55:00
3:15 AM,63.5,55.6,75,30.00,10.0,East,4.6,-,N/A,,Clear,100,2013-08-28 09:15:00
3:35 AM,64.6,55.6,73,30.01,10.0,East,3.5,-,N/A,,Clear,100,2013-08-28 09:35:00
3:55 AM,65.3,56.1,72,30.01,10.0,ESE,5.8,-,N/A,,Clear,120,2013-08-28 09:55:00
4:15 AM,63.9,55.9,75,30.01,10.0,Calm,Calm,-,N/A,,Clear,0,2013-08-28 10:15:00
4:35 AM,63.0,55.6,77,30.01,10.0,Calm,Calm,-,N/A,,Clear,0,2013-08-28 10:35:00
4:55 AM,62.8,54.9,75,30.00,10.0,Calm,Calm,-,N/A,,Clear,0,2013-08-28 10:55:00
5:15 AM,59.9,54.7,83,30.01,10.0,NW,3.5,-,N/A,,Clear,320,2013-08-28 11:15:00
5:35 AM,60.8,55.6,83,30.00,10.0,West,3.5,-,N/A,,Clear,260,2013-08-28 11:35:00
5:55 AM,59.7,55.0,84,30.01,10.0,Calm,Calm,-,N/A,,Clear,0,2013-08-28 11:55:00
6:15 AM,59.7,54.7,83,30.01,10.0,Calm,Calm,-,N/A,,Clear,0,2013-08-28 12:15:00
6:35 AM,60.4,54.7,81,30.02,10.0,Calm,Calm,-,N/A,,Clear,0,2013-08-28 12:35:00
6:55 AM,60.1,55.6,85,30.04,10.0,Calm,Calm,-,N/A,,Clear,0,2013-08-28 12:55:00
7:15 AM,61.9,56.3,82,30.03,10.0,Calm,Calm,-,N/A,,Clear,0,2013-08-28 13:15:00
7:35 AM,63.9,57.2,79,30.04,10.0,Calm,Calm,-,N/A,,Clear,0,2013-08-28 13:35:00
7:55 AM,67.5,56.7,68,30.04,10.0,Calm,Calm,-,N/A,,Clear,0,2013-08-28 13:55:00
8:15 AM,71.2,58.1,63,30.04,10.0,Calm,Calm,-,N/A,,Clear,0,2013-08-28 14:15:00
8:35 AM,73.4,57.9,58,30.04,10.0,Calm,Calm,-,N/A,,Clear,0,2013-08-28 14:35:00
8:55 AM,75.6,58.1,55,30.04,10.0,Calm,Calm,-,N/A,,Clear,0,2013-08-28 14:55:00
9:15 AM,79.3,58.5,49,30.05,10.0,Calm,Calm,-,N/A,,Clear,0,2013-08-28 15:15:00
9:35 AM,82.2,57.4,43,30.05,10.0,SSW,4.6,-,N/A,,Clear,210,2013-08-28 15:35:00
9:55 AM,84.6,56.3,38,30.05,10.0,SE,3.5,-,N/A,,Clear,140,2013-08-28 15:55:00
10:15 AM,86.0,57.7,38,30.05,10.0,ESE,3.5,-,N/A,,Clear,110,2013-08-28 16:15:00
10:35 AM,89.2,57.4,34,30.04,10.0,East,4.6,-,N/A,,Clear,100,2013-08-28 16:35:00
10:55 AM,93.4,51.3,24,30.04,10.0,South,9.2,18.4,N/A,,Clear,170,2013-08-28 16:55:00
11:15 AM,94.8,47.8,20,30.04,10.0,SSE,9.2,-,N/A,,Clear,160,2013-08-28 17:15:00
11:35 AM,95.7,46.6,19,30.04,10.0,South,10.4,-,N/A,,Clear,170,2013-08-28 17:35:00
11:55 AM,95.9,47.3,19,30.04,10.0,South,11.5,17.3,N/A,,Clear,170,2013-08-28 17:55:00
12:15 PM,96.1,46.4,18,30.04,10.0,SSE,12.7,19.6,N/A,,Clear,160,2013-08-28 18:15:00
12:35 PM,97.0,48.2,19,30.03,10.0,South,12.7,19.6,N/A,,Clear,180,2013-08-28 18:35:00
12:55 PM,95.9,48.6,20,30.03,10.0,South,12.7,17.3,N/A,,Clear,180,2013-08-28 18:55:00
1:15 PM,96.3,46.9,19,30.04,10.0,SSE,15.0,18.4,N/A,,Clear,160,2013-08-28 19:15:00
1:35 PM,95.0,46.8,19,30.04,10.0,South,6.9,-,N/A,,Clear,190,2013-08-28 19:35:00
1:55 PM,97.7,45.9,17,30.03,10.0,South,9.2,-,N/A,,Clear,170,2013-08-28 19:55:00
2:15 PM,97.2,42.6,15,30.03,10.0,SE,11.5,-,N/A,,Clear,130,2013-08-28 20:15:00
2:35 PM,96.6,41.7,15,30.03,10.0,SSE,8.1,-,N/A,,Clear,150,2013-08-28 20:35:00
2:55 PM,96.6,46.9,18,30.02,10.0,SSE,9.2,-,N/A,,Clear,160,2013-08-28 20:55:00
3:15 PM,97.0,47.8,19,30.02,10.0,ESE,12.7,-,N/A,,Clear,120,2013-08-28 21:15:00
3:35 PM,96.1,45.7,18,30.02,10.0,SSE,6.9,17.3,N/A,,Clear,150,2013-08-28 21:35:00
3:55 PM,96.8,45.9,17,30.02,10.0,SSE,5.8,9.2,N/A,,Clear,160,2013-08-28 21:55:00
4:15 PM,96.3,44.8,17,30.01,10.0,ESE,8.1,-,N/A,,Clear,110,2013-08-28 22:15:00
4:35 PM,96.8,43.9,16,30.01,10.0,SE,6.9,-,N/A,,Clear,140,2013-08-28 22:35:00
4:55 PM,97.0,41.9,15,30.01,10.0,ESE,9.2,-,N/A,,Clear,120,2013-08-28 22:55:00
5:15 PM,96.1,42.4,16,30.01,10.0,ESE,9.2,-,N/A,,Clear,110,2013-08-28 23:15:00
5:35 PM,95.4,41.9,16,30.01,10.0,ESE,9.2,-,N/A,,Clear,110,2013-08-28 23:35:00
5:55 PM,94.6,41.9,16,30.00,10.0,ESE,6.9,-,N/A,,Clear,120,2013-08-28 23:55:00
6:15 PM,93.2,45.0,19,30.01,10.0,SSE,6.9,-,N/A,,Clear,150,2013-08-29 00:15:00
6:35 PM,91.6,50.2,24,30.01,10.0,SE,5.8,-,N/A,,Clear,140,2013-08-29 00:35:00
6:55 PM,89.1,51.6,28,30.02,10.0,SSE,6.9,-,N/A,,Clear,150,2013-08-29 00:55:00
7:15 PM,86.7,52.0,30,30.02,10.0,SSE,5.8,-,N/A,,Clear,160,2013-08-29 01:15:00
7:35 PM,83.5,52.0,34,30.02,10.0,SSE,4.6,-,N/A,,Clear,160,2013-08-29 01:35:00
7:55 PM,81.7,52.2,36,30.03,10.0,SE,3.5,-,N/A,,Clear,140,2013-08-29 01:55:00
8:15 PM,79.3,53.6,41,30.04,10.0,East,4.6,-,N/A,,Clear,90,2013-08-29 02:15:00
8:35 PM,77.9,54.3,44,30.04,10.0,Calm,Calm,-,N/A,,Clear,0,2013-08-29 02:35:00
8:55 PM,78.1,55.2,45,30.04,10.0,ESE,5.8,-,N/A,,Clear,120,2013-08-29 02:55:00
9:15 PM,79.2,54.7,43,30.05,10.0,East,6.9,-,N/A,,Clear,100,2013-08-29 03:15:00
9:35 PM,76.6,55.9,49,30.05,10.0,East,5.8,-,N/A,,Clear,90,2013-08-29 03:35:00
9:55 PM,76.3,55.9,49,30.05,10.0,East,4.6,-,N/A,,Clear,90,2013-08-29 03:55:00
10:15 PM,78.1,55.8,46,30.05,10.0,East,5.8,-,N/A,,Clear,100,2013-08-29 04:15:00
10:35 PM,75.6,56.1,51,30.06,10.0,East,3.5,-,N/A,,Clear,80,2013-08-29 04:35:00
10:55 PM,75.4,56.3,51,30.05,10.0,East,5.8,-,N/A,,Clear,80,2013-08-29 04:55:00
11:15 PM,74.5,56.3,53,30.06,10.0,East,5.8,-,N/A,,Clear,80,2013-08-29 05:15:00
11:35 PM,73.8,56.7,55,30.05,10.0,ENE,3.5,-,N/A,,Clear,60,2013-08-29 05:35:00
11:55 PM,74.1,56.8,55,30.05,10.0,NE,3.5,-,N/A,,Clear,50,2013-08-29 05:55:00